createdAt,value
2018-12-07T00:04:52.222Z,2.83
2018-12-07T00:07:34.103Z,2.83
2018-12-07T00:10:15.629Z,2.90
2018-12-07T00:18:27.238Z,2.80
2018-12-07T00:23:48.712Z,2.90
2018-12-07T00:29:15.369Z,3.07
2018-12-07T00:31:43.290Z,3.37
2018-12-07T00:47:56.085Z,2.80
2018-12-07T00:50:26.670Z,3.10
2018-12-07T00:53:05.666Z,2.83
2018-12-07T00:58:35.176Z,2.83
2018-12-07T01:01:06.356Z,3.20
2018-12-07T01:03:37.753Z,3.13
2018-12-07T01:11:53.144Z,3.30
2018-12-07T01:17:12.734Z,3.33
2018-12-07T01:19:43.959Z,3.80
2018-12-07T01:25:06.834Z,3.20
2018-12-07T01:27:39.862Z,3.37
2018-12-07T01:33:04.990Z,3.80
2018-12-07T01:38:30.450Z,3.67
2018-12-07T01:44:01.137Z,4.20
2018-12-07T01:46:34.424Z,4.00
2018-12-07T01:49:08.493Z,3.47
2018-12-07T01:51:41.544Z,3.50
2018-12-07T01:54:13.101Z,4.20
2018-12-07T01:59:37.813Z,3.10
2018-12-07T02:05:06.827Z,3.40
2018-12-07T02:07:37.325Z,3.53
2018-12-07T02:10:10.645Z,2.70
2018-12-07T02:12:48.568Z,2.77
2018-12-07T02:15:16.038Z,2.57
2018-12-07T02:17:47.009Z,3.00
2018-12-07T02:20:26.247Z,2.80
2018-12-07T02:23:03.651Z,2.87
2018-12-07T02:25:30.903Z,2.57
2018-12-07T02:27:59.862Z,2.30
2018-12-07T02:30:33.308Z,2.10
2018-12-07T02:33:00.657Z,2.20
2018-12-07T02:38:16.893Z,2.07
2018-12-07T02:40:48.093Z,1.60
2018-12-07T02:43:15.463Z,1.97
2018-12-07T02:45:42.761Z,1.53
2018-12-07T02:48:15.592Z,1.77
2018-12-07T02:50:58.698Z,1.63
2018-12-07T02:53:26.016Z,1.70
2018-12-07T02:55:53.428Z,1.07
2018-12-07T02:58:24.219Z,0.90
2018-12-07T03:01:01.735Z,0.90
2018-12-07T03:03:33.215Z,1.57
2018-12-07T03:06:13.061Z,1.40
2018-12-07T03:08:54.024Z,2.03
2018-12-07T03:11:28.459Z,2.27
2018-12-07T03:13:58.868Z,1.73
2018-12-07T03:16:29.813Z,1.90
2018-12-07T03:19:00.937Z,2.30
2018-12-07T03:21:38.311Z,2.20
2018-12-07T03:27:00.931Z,1.83
2018-12-07T03:29:43.873Z,1.73
2018-12-07T03:32:25.686Z,1.50
2018-12-07T03:34:56.747Z,1.50
2018-12-07T03:37:40.275Z,1.37
2018-12-07T03:40:15.541Z,1.17
2018-12-07T03:42:48.353Z,1.70
2018-12-07T03:45:25.311Z,1.80
2018-12-07T03:48:05.634Z,1.30
2018-12-07T03:53:34.251Z,1.43
2018-12-07T03:56:01.992Z,1.90
2018-12-07T03:58:41.231Z,1.70
2018-12-07T04:01:14.483Z,2.00
2018-12-07T04:03:44.144Z,2.37
2018-12-07T04:06:14.741Z,2.90
2018-12-07T04:08:43.572Z,2.63
2018-12-07T04:11:16.839Z,2.90
2018-12-07T04:13:53.700Z,2.30
2018-12-07T04:22:19.351Z,2.77
2018-12-07T04:27:48.360Z,2.90
2018-12-07T04:30:21.328Z,2.70
2018-12-07T04:32:48.666Z,2.60
2018-12-07T04:44:00.619Z,2.80
2018-12-07T04:46:27.879Z,3.20
2018-12-07T04:51:59.419Z,2.77
2018-12-07T04:54:32.665Z,2.10
2018-12-07T04:57:05.452Z,2.27
2018-12-07T04:59:48.491Z,2.70
2018-12-07T05:02:25.261Z,2.07
2018-12-07T05:04:58.400Z,2.60
2018-12-07T05:07:32.181Z,1.57
2018-12-07T05:10:11.630Z,1.97
2018-12-07T05:12:44.767Z,1.90
2018-12-07T05:18:10.248Z,2.60
2018-12-07T05:23:35.843Z,2.63
2018-12-07T05:26:15.446Z,3.23
2018-12-07T05:28:49.184Z,3.90
2018-12-07T05:31:22.686Z,4.10
2018-12-07T05:36:52.806Z,5.20
2018-12-07T05:39:20.120Z,4.27
2018-12-07T05:41:47.551Z,4.20
2018-12-07T05:44:14.944Z,4.20
2018-12-07T05:46:46.441Z,4.80
2018-12-07T05:49:25.907Z,4.03
2018-12-07T05:54:54.086Z,4.80
2018-12-07T05:57:34.433Z,4.13
2018-12-07T06:00:14.146Z,4.10
2018-12-07T06:02:51.388Z,4.20
2018-12-07T06:05:24.235Z,3.23
2018-12-07T06:07:55.017Z,3.70
2018-12-07T06:10:29.082Z,2.93
2018-12-07T06:12:56.395Z,2.70
2018-12-07T06:15:36.114Z,2.63
2018-12-07T06:18:07.187Z,2.30
2018-12-07T06:20:46.469Z,2.00
2018-12-07T06:23:23.887Z,1.90
2018-12-07T06:25:54.814Z,1.73
2018-12-07T06:34:06.121Z,1.53
2018-12-07T06:45:09.910Z,1.17
2018-12-07T06:47:49.098Z,1.10
2018-12-07T06:50:24.765Z,1.13
2018-12-07T06:55:50.612Z,1.00
2018-12-07T06:58:32.658Z,1.13
2018-12-07T07:01:15.980Z,0.90
2018-12-07T07:03:49.388Z,1.00
2018-12-07T07:09:10.024Z,0.80
2018-12-07T07:11:49.148Z,0.93
2018-12-07T07:14:22.927Z,0.90
2018-12-07T07:16:50.245Z,0.80
2018-12-07T07:19:23.210Z,1.17
2018-12-07T07:21:50.516Z,1.97
2018-12-07T07:24:24.586Z,0.90
2018-12-07T07:26:51.855Z,0.83
2018-12-07T07:32:11.780Z,1.07
2018-12-07T07:37:31.805Z,1.13
2018-12-07T07:39:59.203Z,0.70
2018-12-07T07:42:26.517Z,0.83
2018-12-07T07:44:54.063Z,0.70
2018-12-07T07:47:38.090Z,1.10
2018-12-07T07:50:06.387Z,1.23
2018-12-07T07:52:33.717Z,1.00
2018-12-07T07:55:00.983Z,0.70
2018-12-07T07:57:28.428Z,0.80
2018-12-07T07:59:55.687Z,0.90
2018-12-07T08:02:23.503Z,0.80
2018-12-07T08:04:50.877Z,0.97
2018-12-07T08:07:18.246Z,1.00
2018-12-07T08:09:45.593Z,0.70
2018-12-07T08:12:12.962Z,1.00
2018-12-07T08:14:40.228Z,0.73
2018-12-07T08:17:07.605Z,0.60
2018-12-07T08:19:34.931Z,0.97
2018-12-07T08:22:02.930Z,0.80
2018-12-07T08:24:30.505Z,0.60
2018-12-07T08:26:57.871Z,0.70
2018-12-07T08:29:25.191Z,0.63
2018-12-07T08:31:52.484Z,0.80
2018-12-07T08:34:19.783Z,0.90
2018-12-07T08:36:47.053Z,0.60
2018-12-07T08:39:14.357Z,0.60
2018-12-07T08:41:41.688Z,0.70
2018-12-07T08:44:09.067Z,0.60
2018-12-07T08:46:43.348Z,0.50
2018-12-07T08:49:10.673Z,0.63
2018-12-07T08:51:38.008Z,0.77
2018-12-07T08:54:05.351Z,0.70
2018-12-07T09:04:18.751Z,0.97
2018-12-07T09:06:46.093Z,0.70
2018-12-07T09:09:13.542Z,0.67
2018-12-07T09:11:40.840Z,0.80
2018-12-07T09:17:00.414Z,0.50
2018-12-07T09:19:27.879Z,0.73
2018-12-07T09:21:55.344Z,0.80
2018-12-07T09:24:22.703Z,0.53
2018-12-07T09:26:50.201Z,0.83
2018-12-07T09:29:17.807Z,0.70
2018-12-07T09:31:45.125Z,0.60
2018-12-07T09:34:12.490Z,0.67
2018-12-07T09:36:39.808Z,0.83
2018-12-07T09:39:08.159Z,0.60
2018-12-07T09:41:35.608Z,0.60
2018-12-07T09:44:03.105Z,0.90
2018-12-07T09:46:30.494Z,0.83
2018-12-07T09:48:58.023Z,0.70
2018-12-07T09:51:25.362Z,0.77
2018-12-07T09:53:53.013Z,0.90
2018-12-07T09:56:20.334Z,0.80
2018-12-07T09:58:47.737Z,0.70
2018-12-07T10:01:15.126Z,0.70
2018-12-07T10:03:42.534Z,1.17
2018-12-07T10:06:09.819Z,0.70
2018-12-07T10:08:37.227Z,1.00
2018-12-07T10:11:04.555Z,0.93
2018-12-07T10:13:32.538Z,1.07
2018-12-07T10:15:59.840Z,0.60
2018-12-07T10:18:27.150Z,0.80
2018-12-07T10:20:54.492Z,1.00
2018-12-07T10:23:21.789Z,0.70
2018-12-07T10:25:49.281Z,1.20
2018-12-07T10:28:16.824Z,2.07
2018-12-07T10:30:44.213Z,0.70
2018-12-07T10:33:11.582Z,0.80
2018-12-07T10:35:38.935Z,0.97
2018-12-07T10:38:06.448Z,0.73
2018-12-07T10:40:33.838Z,0.70
2018-12-07T10:43:01.126Z,0.70
2018-12-07T10:45:29.229Z,0.50
2018-12-07T10:47:56.567Z,0.70
2018-12-07T10:50:24.044Z,0.80
2018-12-07T10:52:51.430Z,0.80
2018-12-07T10:55:18.778Z,0.57
2018-12-07T10:57:46.133Z,0.67
2018-12-07T11:00:22.800Z,0.67
2018-12-07T11:02:52.644Z,0.70
2018-12-07T11:05:25.515Z,0.70
2018-12-07T11:07:58.273Z,0.73
2018-12-07T11:10:31.192Z,0.90
2018-12-07T11:13:03.803Z,0.90
2018-12-07T11:15:36.821Z,0.83
2018-12-07T11:18:09.467Z,0.73
2018-12-07T11:20:42.393Z,0.93
2018-12-07T11:23:14.967Z,0.50
2018-12-07T11:25:47.659Z,0.70
2018-12-07T11:28:20.251Z,0.73
2018-12-07T11:30:52.896Z,0.80
2018-12-07T11:33:25.539Z,0.83
2018-12-07T11:35:52.861Z,1.00
2018-12-07T11:38:20.227Z,0.60
2018-12-07T11:40:47.569Z,0.70
2018-12-07T11:43:14.873Z,2.20
2018-12-07T11:45:42.216Z,0.53
2018-12-07T11:48:09.645Z,1.03
2018-12-07T11:50:37.018Z,0.80
2018-12-07T11:53:04.422Z,1.03
2018-12-07T11:55:31.751Z,1.33
2018-12-07T11:57:59.171Z,0.70
2018-12-07T12:00:26.509Z,0.90
2018-12-07T12:02:53.810Z,0.57
2018-12-07T12:05:21.232Z,0.77
2018-12-07T12:07:48.605Z,0.60
2018-12-07T12:10:15.913Z,0.63
2018-12-07T12:12:43.227Z,1.10
2018-12-07T12:15:10.549Z,1.20
2018-12-07T12:17:37.957Z,0.70
2018-12-07T12:20:05.916Z,0.80
2018-12-07T12:22:33.251Z,0.70
2018-12-07T12:25:12.562Z,0.77
2018-12-07T12:27:39.942Z,0.90
2018-12-07T12:30:07.678Z,0.60
2018-12-07T12:32:35.018Z,0.80
2018-12-07T12:35:02.660Z,0.70
2018-12-07T12:37:29.998Z,0.70
2018-12-07T12:39:57.555Z,0.50
2018-12-07T12:42:24.977Z,0.73
2018-12-07T12:44:52.280Z,0.90
2018-12-07T12:47:19.633Z,0.63
2018-12-07T12:49:46.995Z,0.80
2018-12-07T12:52:14.482Z,0.97
2018-12-07T12:54:41.991Z,0.70
2018-12-07T12:57:09.449Z,1.00
2018-12-07T12:59:36.849Z,0.70
2018-12-07T13:02:04.490Z,0.60
2018-12-07T13:04:31.927Z,0.70
2018-12-07T13:06:59.388Z,0.90
2018-12-07T13:09:26.758Z,0.70
2018-12-07T13:11:54.321Z,0.73
2018-12-07T13:14:22.177Z,0.63
2018-12-07T13:16:49.730Z,0.67
2018-12-07T13:19:17.896Z,0.60
2018-12-07T13:21:46.241Z,0.83
2018-12-07T13:24:13.630Z,0.60
2018-12-07T13:26:41.054Z,0.90
2018-12-07T13:32:00.662Z,0.70
2018-12-07T13:37:42.882Z,0.80
2018-12-07T13:40:10.460Z,0.60
2018-12-07T13:42:37.966Z,0.77
2018-12-07T13:45:07.449Z,1.00
2018-12-07T13:47:35.148Z,0.57
2018-12-07T13:50:08.384Z,0.70
2018-12-07T13:52:37.089Z,0.70
2018-12-07T13:55:05.384Z,0.70
2018-12-07T13:57:33.114Z,0.77
2018-12-07T14:00:01.064Z,0.67
2018-12-07T14:02:28.578Z,0.90
2018-12-07T14:04:59.709Z,0.80
2018-12-07T14:07:27.425Z,0.80
2018-12-07T14:09:55.389Z,0.70
2018-12-07T14:12:22.852Z,0.83
2018-12-07T14:14:51.181Z,0.90
2018-12-07T14:17:19.255Z,0.63
2018-12-07T14:19:47.779Z,0.57
2018-12-07T14:22:15.168Z,0.97
2018-12-07T14:24:42.854Z,1.27
2018-12-07T14:27:10.494Z,0.80
2018-12-07T14:29:38.161Z,0.80
2018-12-07T14:32:05.735Z,0.70
2018-12-07T14:34:33.378Z,0.70
2018-12-07T14:37:01.044Z,0.80
2018-12-07T14:39:28.599Z,0.93
2018-12-07T14:41:56.262Z,0.80
2018-12-07T14:44:23.835Z,0.90
2018-12-07T14:46:53.469Z,1.17
2018-12-07T14:49:20.891Z,1.03
2018-12-07T14:51:48.621Z,1.17
2018-12-07T14:54:16.118Z,0.90
2018-12-07T14:56:43.879Z,0.80
2018-12-07T15:02:03.076Z,1.10
2018-12-07T15:04:30.709Z,1.10
2018-12-07T15:06:58.313Z,0.83
2018-12-07T15:09:26.039Z,0.80
2018-12-07T15:11:53.789Z,0.97
2018-12-07T15:14:21.335Z,0.80
2018-12-07T15:16:48.932Z,0.97
2018-12-07T15:19:16.413Z,0.90
2018-12-07T15:21:43.984Z,0.67
2018-12-07T15:24:11.418Z,0.57
2018-12-07T15:26:38.885Z,0.70
2018-12-07T15:29:06.422Z,0.57
2018-12-07T15:31:34.095Z,0.50
2018-12-07T15:34:02.395Z,0.60
2018-12-07T15:36:29.969Z,0.50
2018-12-07T15:38:57.521Z,0.97
2018-12-07T15:41:25.289Z,0.80
2018-12-07T15:43:53.359Z,0.67
2018-12-07T15:46:21.096Z,0.80
2018-12-07T15:48:48.624Z,0.90
2018-12-07T15:51:16.098Z,0.80
2018-12-07T15:53:43.629Z,0.90
2018-12-07T15:56:11.168Z,0.90
2018-12-07T15:58:38.633Z,1.20
2018-12-07T16:01:06.322Z,1.00
2018-12-07T16:03:34.058Z,1.20
2018-12-07T16:11:27.348Z,2.27
2018-12-07T16:13:55.224Z,0.90
2018-12-07T16:16:22.842Z,0.87
2018-12-07T16:18:50.325Z,1.10
2018-12-07T16:21:17.745Z,0.80
2018-12-07T16:23:45.541Z,1.00
2018-12-07T16:26:13.460Z,0.90
2018-12-07T16:28:41.077Z,1.00
2018-12-07T16:31:08.639Z,0.90
2018-12-07T16:33:36.107Z,1.17
2018-12-07T16:36:03.904Z,1.00
2018-12-07T16:38:31.370Z,0.70
2018-12-07T16:40:59.054Z,0.90
2018-12-07T16:43:26.826Z,0.93
2018-12-07T16:45:54.545Z,1.03
2018-12-07T16:54:10.669Z,1.10
2018-12-07T16:56:46.614Z,1.10
2018-12-07T16:59:14.187Z,1.00
2018-12-07T17:01:42.319Z,1.20
2018-12-07T17:04:09.947Z,1.00
2018-12-07T17:06:37.725Z,1.27
2018-12-07T17:09:07.571Z,1.23
2018-12-07T17:14:28.479Z,1.27
2018-12-07T17:17:08.667Z,1.33
2018-12-07T17:19:36.592Z,1.53
2018-12-07T17:22:10.884Z,1.43
2018-12-07T17:40:18.022Z,1.33
2018-12-07T17:42:45.693Z,1.50
2018-12-07T17:45:16.982Z,1.13
2018-12-07T17:47:44.437Z,1.40
2018-12-07T17:50:12.296Z,1.60
2018-12-07T17:52:46.190Z,1.33
2018-12-07T17:55:13.980Z,1.30
2018-12-07T17:57:41.684Z,1.40
2018-12-07T18:00:19.727Z,1.30
2018-12-07T18:02:47.223Z,1.30
2018-12-07T18:08:06.590Z,1.40
2018-12-07T18:10:34.044Z,1.37
2018-12-07T18:13:02.579Z,1.70
2018-12-07T18:15:30.712Z,1.60
2018-12-07T18:17:58.056Z,1.23
2018-12-07T18:20:26.570Z,1.20
2018-12-07T18:22:54.177Z,1.30
2018-12-07T18:25:27.679Z,1.50
2018-12-07T18:27:55.277Z,1.50
2018-12-07T18:30:22.845Z,1.60
2018-12-07T18:32:50.361Z,1.20
2018-12-07T18:35:17.949Z,1.10
2018-12-07T18:37:45.643Z,1.20
2018-12-07T18:40:13.183Z,1.50
2018-12-07T18:42:40.803Z,1.50
2018-12-07T18:45:08.611Z,1.57
2018-12-07T18:47:36.410Z,1.20
2018-12-07T18:50:04.522Z,1.80
2018-12-07T18:52:32.223Z,1.40
2018-12-07T18:54:59.651Z,1.40
2018-12-07T18:57:27.279Z,1.50
2018-12-07T18:59:54.734Z,1.43
2018-12-07T19:02:22.189Z,1.50
2018-12-07T19:04:50.627Z,1.50
2018-12-07T19:07:18.266Z,1.60
2018-12-07T19:09:45.667Z,1.67
2018-12-07T19:12:13.333Z,1.50
2018-12-07T19:14:40.815Z,1.73
2018-12-07T19:17:08.210Z,2.00
2018-12-07T19:19:35.775Z,1.57
2018-12-07T19:22:03.273Z,2.20
2018-12-07T19:24:30.605Z,2.80
2018-12-07T19:26:58.392Z,1.80
2018-12-07T19:29:29.636Z,1.40
2018-12-07T19:34:49.107Z,0.80
2018-12-07T19:37:18.297Z,0.80
2018-12-07T19:39:49.273Z,1.07
2018-12-07T19:45:11.131Z,0.83
2018-12-07T19:47:38.559Z,0.73
2018-12-07T19:50:06.366Z,0.87
2018-12-07T19:52:34.024Z,0.77
2018-12-07T19:55:02.453Z,0.77
2018-12-07T19:57:30.016Z,1.23
2018-12-07T19:59:57.693Z,0.80
2018-12-07T20:02:25.179Z,1.40
2018-12-07T20:04:55.999Z,0.80
2018-12-07T20:10:16.577Z,1.10
2018-12-07T20:12:44.386Z,0.90
2018-12-07T20:15:11.865Z,0.73
2018-12-07T20:17:39.535Z,0.83
2018-12-07T20:20:07.526Z,1.10
2018-12-07T20:25:27.061Z,0.90
2018-12-07T20:27:55.177Z,1.00
2018-12-07T20:30:22.532Z,1.47
2018-12-07T20:32:50.257Z,1.40
2018-12-07T20:35:20.677Z,1.17
2018-12-07T20:37:48.072Z,1.23
2018-12-07T20:40:15.509Z,1.00
2018-12-07T20:42:43.081Z,1.10
2018-12-07T20:47:56.861Z,1.10
2018-12-07T20:50:24.376Z,0.90
2018-12-07T20:52:52.065Z,1.67
2018-12-07T20:55:23.342Z,1.07
2018-12-07T20:57:50.959Z,1.17
2018-12-07T21:00:18.675Z,1.30
2018-12-07T21:02:47.366Z,1.63
2018-12-07T21:05:54.378Z,1.77
2018-12-07T21:08:34.259Z,1.53
2018-12-07T21:13:18.169Z,1.60
2018-12-07T21:15:59.744Z,1.70
2018-12-07T21:18:33.381Z,1.20
2018-12-07T21:21:01.252Z,1.67
2018-12-07T21:23:28.738Z,1.50
2018-12-07T21:25:56.263Z,1.37
2018-12-07T21:28:30.103Z,2.53
2018-12-07T21:30:59.813Z,1.30
2018-12-07T21:33:31.383Z,1.50
2018-12-07T21:36:22.242Z,1.60
2018-12-07T21:41:41.781Z,1.73
2018-12-07T21:47:02.356Z,1.67
2018-12-07T21:49:31.986Z,1.50
2018-12-07T21:52:31.538Z,1.70
2018-12-07T21:54:59.143Z,1.90
2018-12-07T22:00:32.463Z,1.53
2018-12-07T22:03:03.525Z,1.27
2018-12-07T22:05:31.032Z,1.83
2018-12-07T22:07:59.259Z,1.80
2018-12-07T22:10:26.852Z,1.23
2018-12-07T22:12:54.443Z,1.63
2018-12-07T22:15:21.849Z,1.50
2018-12-07T22:17:52.460Z,1.60
2018-12-07T22:20:19.811Z,1.40
2018-12-07T22:22:47.348Z,1.67
2018-12-07T22:25:20.402Z,1.70
2018-12-07T22:27:49.099Z,1.90
2018-12-07T22:30:16.795Z,1.70
2018-12-07T22:32:44.484Z,2.17
2018-12-07T22:35:12.128Z,1.70
2018-12-07T22:37:39.509Z,1.73
2018-12-07T22:40:06.862Z,2.70
2018-12-07T22:42:34.341Z,1.90
2018-12-07T22:45:01.756Z,2.23
2018-12-07T22:47:45.371Z,1.73
2018-12-07T22:53:01.469Z,1.70
2018-12-07T22:55:29.078Z,2.60
2018-12-07T22:57:56.808Z,1.97
2018-12-07T23:00:24.371Z,2.10
2018-12-07T23:02:51.811Z,2.07
2018-12-07T23:05:19.206Z,1.87
2018-12-07T23:07:46.714Z,2.03
2018-12-07T23:10:14.054Z,1.90
2018-12-07T23:12:41.422Z,2.17
2018-12-07T23:15:09.234Z,2.03
2018-12-07T23:17:37.616Z,2.20
2018-12-07T23:20:05.112Z,1.63
2018-12-07T23:22:33.488Z,1.87
2018-12-07T23:25:00.926Z,1.70
2018-12-07T23:30:20.220Z,2.97
2018-12-07T23:32:47.646Z,1.97
2018-12-07T23:40:59.783Z,1.50
2018-12-07T23:43:27.185Z,1.97
2018-12-07T23:45:54.488Z,1.27
2018-12-07T23:48:22.183Z,1.10
2018-12-07T23:50:50.838Z,1.60
2018-12-07T23:53:18.533Z,1.57
2018-12-07T23:55:45.851Z,1.93
2018-12-07T23:58:15.285Z,1.57
